Alberta — C6YO3 — position and weather

sailwx.info

Track history (hours):
 
Tides and Currents Weather Stations Pressure Air Temp Water Temp Dewpoint Dewpoint Depression Visibility Wind Speed Wind Dir Waves Ship Positions

Alberta

Last reported at 2017-Dec-11 06:33 UTC. Time now 2017-Dec-12 08:06 UTC.
Position N 31°08' E 032°19'.

Length 229 m; draft 11.5 m.

Type: Tanker. MMSI: 311039900.

Date/timePositionNaut miles runAvg speedWind from/ knotsBaromVisibWave heightAir tempDewpointWater temp
2017-Dec-11 06:33N 31°08' E 032°19'405 9.3
2017-Dec-09 11:12N 35°32' E 026°11'313.3
2017-Dec-09 11:00N 35°33' E 026°08'713.3
2017-Dec-09 10:30N 35°37' E 026°02'713.1
2017-Dec-09 10:01N 35°41' E 025°55'612.9
2017-Dec-09 09:31N 35°44' E 025°48'613.0
2017-Dec-09 09:01N 35°48' E 025°42'612.9
2017-Dec-09 08:31N 35°51' E 025°35'612.8
2017-Dec-09 08:01N 35°55' E 025°28'612.9
2017-Dec-09 07:30N 35°58' E 025°22'612.9
2017-Dec-09 07:01N 36°02' E 025°15'713.3
2017-Dec-09 06:31N 36°06' E 025°08'713.4
2017-Dec-09 06:01N 36°09' E 025°02'713.1
2017-Dec-09 05:31N 36°13' E 024°55'713.0
2017-Dec-09 05:01N 36°16' E 024°48'612.9
2017-Dec-09 04:31N 36°20' E 024°41'612.8
2017-Dec-09 04:01N 36°23' E 024°34'612.8
2017-Dec-09 03:31N 36°27' E 024°28'713.1
2017-Dec-09 03:01N 36°31' E 024°21'713.0
2017-Dec-09 02:31N 36°34' E 024°14'612.4
2017-Dec-09 02:00N 36°40' E 024°11'612.9
2017-Dec-09 01:30N 36°46' E 024°08'613.0
2017-Dec-09 01:01N 36°52' E 024°05'713.1
2017-Dec-09 00:31N 36°58' E 024°02'713.2
2017-Dec-09 00:01N 37°04' E 023°60'713.1
2017-Dec-08 23:31N 37°10' E 023°57'713.1
2017-Dec-08 22:58N 37°17' E 023°53'912.9
2017-Dec-08 22:14N 37°26' E 023°49'312.9
2017-Dec-08 22:00N 37°29' E 023°48'612.9
2017-Dec-08 21:30N 37°34' E 023°45'612.8
2017-Dec-08 21:01N 37°40' E 023°41'612.7
2017-Dec-08 20:31N 37°46' E 023°37'611.2
2017-Dec-08 20:01N 37°50' E 023°32'2 4.8
2017-Dec-08 19:30N 37°51' E 023°30'0 0.0
2017-Dec-08 18:58N 37°51' E 023°30'0 0.0
2017-Dec-08 18:28N 37°51' E 023°30'0 0.0
2017-Dec-08 17:55N 37°51' E 023°30'0 0.0
2017-Dec-08 17:28N 37°51' E 023°30'0 0.1
2017-Dec-08 16:58N 37°51' E 023°30'0 0.0
2017-Dec-08 16:28N 37°51' E 023°30'0 0.0
2017-Dec-08 15:58N 37°51' E 023°30'0 0.1
2017-Dec-08 15:28N 37°51' E 023°30'0 0.1
2017-Dec-08 14:58N 37°51' E 023°30'0 0.1
2017-Dec-08 14:28N 37°51' E 023°30'0 0.1
2017-Dec-08 13:58N 37°51' E 023°30'0 0.1
2017-Dec-08 13:28N 37°51' E 023°30'0 0.0
2017-Dec-08 12:58N 37°51' E 023°30'0 0.0
2017-Dec-08 12:28N 37°51' E 023°30'0 0.0
2017-Dec-08 11:58N 37°51' E 023°30'0 0.1
2017-Dec-08 11:28N 37°51' E 023°30'0 0.1
2017-Dec-08 10:59N 37°51' E 023°30'1 1.5
2017-Dec-08 10:30N 37°50' E 023°29'5 9.2
2017-Dec-08 10:00N 37°51' E 023°24'612.5
2017-Dec-08 09:30N 37°52' E 023°16'612.1
2017-Dec-08 09:00N 37°54' E 023°08'3 5.5
2017-Dec-08 08:30N 37°55' E 023°05'0 0.1
2017-Dec-08 07:58N 37°55' E 023°05'0 0.0
2017-Dec-08 07:28N 37°55' E 023°05'0 0.0
2017-Dec-08 06:58N 37°55' E 023°05'0 0.0
2017-Dec-08 06:28N 37°55' E 023°05'0 0.0
2017-Dec-08 05:58N 37°55' E 023°05'0 0.0
2017-Dec-08 05:28N 37°55' E 023°05'0 0.0
2017-Dec-08 04:58N 37°55' E 023°05'0 0.0
2017-Dec-08 04:28N 37°55' E 023°05'0 0.0
2017-Dec-08 03:58N 37°55' E 023°05'0 0.0
2017-Dec-08 03:28N 37°55' E 023°05'0 0.0
2017-Dec-08 02:58N 37°55' E 023°05'0 0.0
2017-Dec-08 02:28N 37°55' E 023°05'0 0.0
2017-Dec-08 01:58N 37°55' E 023°05'0 0.0
2017-Dec-08 01:28N 37°55' E 023°05'0 0.0
2017-Dec-08 00:58N 37°55' E 023°05'0 0.0
2017-Dec-08 00:28N 37°55' E 023°05'0 0.0
2017-Dec-07 23:58N 37°55' E 023°05'0 0.0
2017-Dec-07 23:28N 37°55' E 023°05'0 0.0
2017-Dec-07 22:58N 37°55' E 023°05'0 0.0
2017-Dec-07 22:28N 37°55' E 023°05'0 0.0
2017-Dec-07 21:58N 37°55' E 023°05'0 0.0
2017-Dec-07 21:28N 37°55' E 023°05'0 0.0
2017-Dec-07 20:58N 37°55' E 023°05'0 0.0
2017-Dec-07 20:28N 37°55' E 023°05'0 0.0
2017-Dec-07 19:58N 37°55' E 023°05'0 0.0
2017-Dec-07 19:28N 37°55' E 023°05'0 0.0
2017-Dec-07 18:58N 37°55' E 023°05'0 0.0
2017-Dec-07 18:28N 37°55' E 023°05'0 0.0
2017-Dec-07 17:58N 37°55' E 023°05'0 0.0
2017-Dec-07 17:28N 37°55' E 023°05'0 0.0
2017-Dec-07 16:58N 37°55' E 023°05'0 0.0
2017-Dec-07 16:28N 37°55' E 023°05'0 0.0
2017-Dec-07 15:58N 37°55' E 023°05'0 0.0
2017-Dec-07 15:28N 37°55' E 023°05'0 0.0
2017-Dec-07 14:58N 37°55' E 023°05'0 0.0
2017-Dec-07 14:28N 37°55' E 023°05'0 0.0
2017-Dec-07 13:58N 37°55' E 023°05'0 0.0
2017-Dec-07 13:28N 37°55' E 023°05'0 0.0
2017-Dec-07 12:58N 37°55' E 023°05'0 0.0
2017-Dec-07 12:28N 37°55' E 023°05'0 0.0
2017-Dec-07 11:58N 37°55' E 023°05'0 0.0
2017-Dec-07 11:28N 37°55' E 023°05'0 0.0
2017-Dec-07 10:58N 37°55' E 023°05'0 0.0
2017-Dec-07 10:28N 37°55' E 023°05'0 0.0
2017-Dec-07 09:58N 37°55' E 023°05'0 0.0
2017-Dec-07 09:28N 37°55' E 023°05'0 0.0
2017-Dec-07 08:58N 37°55' E 023°05'0 0.0
2017-Dec-07 08:28N 37°55' E 023°05'0 0.0
2017-Dec-07 07:58N 37°55' E 023°05'0 0.0
2017-Dec-07 07:28N 37°55' E 023°05'0 0.0
2017-Dec-07 06:58N 37°55' E 023°05'0 0.0
2017-Dec-07 06:28N 37°55' E 023°05'0 0.0
2017-Dec-07 05:58N 37°55' E 023°05'0 0.0
2017-Dec-07 05:28N 37°55' E 023°05'0 0.0
2017-Dec-07 04:58N 37°55' E 023°05'0 0.0
2017-Dec-07 04:28N 37°55' E 023°05'0 0.0
2017-Dec-07 03:58N 37°55' E 023°05'0 0.0
2017-Dec-07 03:28N 37°55' E 023°05'0 0.0
2017-Dec-07 02:58N 37°55' E 023°05'0 0.0
2017-Dec-07 02:28N 37°55' E 023°05'0 0.0
2017-Dec-07 01:58N 37°55' E 023°05'0 0.0
2017-Dec-07 01:28N 37°55' E 023°05'0 0.0
2017-Dec-07 00:58N 37°55' E 023°05'0 0.0
2017-Dec-07 00:28N 37°55' E 023°05'0 0.0
2017-Dec-06 23:58N 37°55' E 023°05'0 0.0
2017-Dec-06 23:28N 37°55' E 023°05'0 0.0
2017-Dec-06 22:58N 37°55' E 023°05'0 0.0
2017-Dec-06 22:28N 37°55' E 023°05'0 0.0
2017-Dec-06 21:58N 37°55' E 023°05'0 0.0
2017-Dec-06 21:28N 37°55' E 023°05'0 0.0
2017-Dec-06 20:58N 37°55' E 023°05'  
2017-Dec-04 10:31N 36°01' E 025°17'713.4
2017-Dec-04 10:01N 35°57' E 025°24'713.5
2017-Dec-04 09:30N 35°53' E 025°31'713.4
2017-Dec-04 09:01N 35°50' E 025°38'713.3
2017-Dec-04 08:31N 35°46' E 025°45'713.6
2017-Dec-04 08:00N 35°42' E 025°52'713.8
2017-Dec-04 07:31N 35°38' E 025°59'612.6
2017-Dec-04 07:00N 35°35' E 026°05'3 5.3
2017-Dec-04 06:30N 35°33' E 026°08'1 2.5
2017-Dec-04 06:00N 35°33' E 026°10'510.8
2017-Dec-04 05:30N 35°30' E 026°15'713.7
2017-Dec-04 05:00N 35°26' E 026°22'713.2
2017-Dec-04 04:30N 35°22' E 026°28'612.8
2017-Dec-04 04:00N 35°18' E 026°35'612.8
2017-Dec-04 03:30N 35°14' E 026°41'2113.0
2017-Dec-04 01:54N 35°01' E 027°01'812.8
2017-Dec-04 01:17N 34°56' E 027°08'312.9
2017-Dec-04 01:01N 34°54' E 027°11'813.0
2017-Dec-04 00:25N 34°49' E 027°19'612.9
2017-Dec-03 23:58N 34°46' E 027°24'712.8
2017-Dec-03 23:23N 34°41' E 027°31'512.7
2017-Dec-03 23:01N 34°38' E 027°36'2011.8
2017-Dec-03 21:18N 34°25' E 027°55'27611.3
2017-Dec-02 20:50N 31°33' E 032°13'413.6
2017-Dec-02 20:30N 31°32' E 032°18'713.7
2017-Dec-02 19:59N 31°27' E 032°24'1312.2
2017-Dec-02 18:56N 31°14' E 032°21'4 7.8
2017-Dec-02 18:27N 31°11' E 032°20'5 8.8
2017-Dec-02 17:54N 31°06' E 032°19'4 8.9
2017-Dec-02 17:24N 31°02' E 032°19'8 8.7
2017-Dec-02 16:33N 30°54' E 032°19'210.6
2017-Dec-02 16:24N 30°53' E 032°19'  
Track history (hours):
 
Tides and Currents Weather Stations Pressure Air Temp Water Temp Dewpoint Dewpoint Depression Visibility Wind Speed Wind Dir Waves Ship Positions

Alberta

Last reported at 2017-Dec-11 06:33 UTC. Time now 2017-Dec-12 08:06 UTC.
Position N 31°08' E 032°19'.

Length 229 m; draft 11.5 m.

Type: Tanker. MMSI: 311039900.

Date/timePositionNaut miles runAvg speedWind from/ knotsBaromVisibWave heightAir tempDewpointWater temp
2017-Dec-11 06:33N 31°08' E 032°19'405 9.3
2017-Dec-09 11:12N 35°32' E 026°11'313.3
2017-Dec-09 11:00N 35°33' E 026°08'713.3
2017-Dec-09 10:30N 35°37' E 026°02'713.1
2017-Dec-09 10:01N 35°41' E 025°55'612.9
2017-Dec-09 09:31N 35°44' E 025°48'613.0
2017-Dec-09 09:01N 35°48' E 025°42'612.9
2017-Dec-09 08:31N 35°51' E 025°35'612.8
2017-Dec-09 08:01N 35°55' E 025°28'612.9
2017-Dec-09 07:30N 35°58' E 025°22'612.9
2017-Dec-09 07:01N 36°02' E 025°15'713.3
2017-Dec-09 06:31N 36°06' E 025°08'713.4
2017-Dec-09 06:01N 36°09' E 025°02'713.1
2017-Dec-09 05:31N 36°13' E 024°55'713.0
2017-Dec-09 05:01N 36°16' E 024°48'612.9
2017-Dec-09 04:31N 36°20' E 024°41'612.8
2017-Dec-09 04:01N 36°23' E 024°34'612.8
2017-Dec-09 03:31N 36°27' E 024°28'713.1
2017-Dec-09 03:01N 36°31' E 024°21'713.0
2017-Dec-09 02:31N 36°34' E 024°14'612.4
2017-Dec-09 02:00N 36°40' E 024°11'612.9
2017-Dec-09 01:30N 36°46' E 024°08'613.0
2017-Dec-09 01:01N 36°52' E 024°05'713.1
2017-Dec-09 00:31N 36°58' E 024°02'713.2
2017-Dec-09 00:01N 37°04' E 023°60'713.1
2017-Dec-08 23:31N 37°10' E 023°57'713.1
2017-Dec-08 22:58N 37°17' E 023°53'912.9
2017-Dec-08 22:14N 37°26' E 023°49'312.9
2017-Dec-08 22:00N 37°29' E 023°48'612.9
2017-Dec-08 21:30N 37°34' E 023°45'612.8
2017-Dec-08 21:01N 37°40' E 023°41'612.7
2017-Dec-08 20:31N 37°46' E 023°37'611.2
2017-Dec-08 20:01N 37°50' E 023°32'2 4.8
2017-Dec-08 19:30N 37°51' E 023°30'0 0.0
2017-Dec-08 18:58N 37°51' E 023°30'0 0.0
2017-Dec-08 18:28N 37°51' E 023°30'0 0.0
2017-Dec-08 17:55N 37°51' E 023°30'0 0.0
2017-Dec-08 17:28N 37°51' E 023°30'0 0.1
2017-Dec-08 16:58N 37°51' E 023°30'0 0.0
2017-Dec-08 16:28N 37°51' E 023°30'0 0.0
2017-Dec-08 15:58N 37°51' E 023°30'0 0.1
2017-Dec-08 15:28N 37°51' E 023°30'0 0.1
2017-Dec-08 14:58N 37°51' E 023°30'0 0.1
2017-Dec-08 14:28N 37°51' E 023°30'0 0.1
2017-Dec-08 13:58N 37°51' E 023°30'0 0.1
2017-Dec-08 13:28N 37°51' E 023°30'0 0.0
2017-Dec-08 12:58N 37°51' E 023°30'0 0.0
2017-Dec-08 12:28N 37°51' E 023°30'0 0.0
2017-Dec-08 11:58N 37°51' E 023°30'0 0.1
2017-Dec-08 11:28N 37°51' E 023°30'0 0.1
2017-Dec-08 10:59N 37°51' E 023°30'1 1.5
2017-Dec-08 10:30N 37°50' E 023°29'5 9.2
2017-Dec-08 10:00N 37°51' E 023°24'612.5
2017-Dec-08 09:30N 37°52' E 023°16'612.1
2017-Dec-08 09:00N 37°54' E 023°08'3 5.5
2017-Dec-08 08:30N 37°55' E 023°05'0 0.1
2017-Dec-08 07:58N 37°55' E 023°05'0 0.0
2017-Dec-08 07:28N 37°55' E 023°05'0 0.0
2017-Dec-08 06:58N 37°55' E 023°05'0 0.0
2017-Dec-08 06:28N 37°55' E 023°05'0 0.0
2017-Dec-08 05:58N 37°55' E 023°05'0 0.0
2017-Dec-08 05:28N 37°55' E 023°05'0 0.0
2017-Dec-08 04:58N 37°55' E 023°05'0 0.0
2017-Dec-08 04:28N 37°55' E 023°05'0 0.0
2017-Dec-08 03:58N 37°55' E 023°05'0 0.0
2017-Dec-08 03:28N 37°55' E 023°05'0 0.0
2017-Dec-08 02:58N 37°55' E 023°05'0 0.0
2017-Dec-08 02:28N 37°55' E 023°05'0 0.0
2017-Dec-08 01:58N 37°55' E 023°05'0 0.0
2017-Dec-08 01:28N 37°55' E 023°05'0 0.0
2017-Dec-08 00:58N 37°55' E 023°05'0 0.0
2017-Dec-08 00:28N 37°55' E 023°05'0 0.0
2017-Dec-07 23:58N 37°55' E 023°05'0 0.0
2017-Dec-07 23:28N 37°55' E 023°05'0 0.0
2017-Dec-07 22:58N 37°55' E 023°05'0 0.0
2017-Dec-07 22:28N 37°55' E 023°05'0 0.0
2017-Dec-07 21:58N 37°55' E 023°05'0 0.0
2017-Dec-07 21:28N 37°55' E 023°05'0 0.0
2017-Dec-07 20:58N 37°55' E 023°05'0 0.0
2017-Dec-07 20:28N 37°55' E 023°05'0 0.0
2017-Dec-07 19:58N 37°55' E 023°05'0 0.0
2017-Dec-07 19:28N 37°55' E 023°05'0 0.0
2017-Dec-07 18:58N 37°55' E 023°05'0 0.0
2017-Dec-07 18:28N 37°55' E 023°05'0 0.0
2017-Dec-07 17:58N 37°55' E 023°05'0 0.0
2017-Dec-07 17:28N 37°55' E 023°05'0 0.0
2017-Dec-07 16:58N 37°55' E 023°05'0 0.0
2017-Dec-07 16:28N 37°55' E 023°05'0 0.0
2017-Dec-07 15:58N 37°55' E 023°05'0 0.0
2017-Dec-07 15:28N 37°55' E 023°05'0 0.0
2017-Dec-07 14:58N 37°55' E 023°05'0 0.0
2017-Dec-07 14:28N 37°55' E 023°05'0 0.0
2017-Dec-07 13:58N 37°55' E 023°05'0 0.0
2017-Dec-07 13:28N 37°55' E 023°05'0 0.0
2017-Dec-07 12:58N 37°55' E 023°05'0 0.0
2017-Dec-07 12:28N 37°55' E 023°05'0 0.0
2017-Dec-07 11:58N 37°55' E 023°05'0 0.0
2017-Dec-07 11:28N 37°55' E 023°05'0 0.0
2017-Dec-07 10:58N 37°55' E 023°05'0 0.0
2017-Dec-07 10:28N 37°55' E 023°05'0 0.0
2017-Dec-07 09:58N 37°55' E 023°05'0 0.0
2017-Dec-07 09:28N 37°55' E 023°05'0 0.0
2017-Dec-07 08:58N 37°55' E 023°05'0 0.0
2017-Dec-07 08:28N 37°55' E 023°05'0 0.0
2017-Dec-07 07:58N 37°55' E 023°05'0 0.0
2017-Dec-07 07:28N 37°55' E 023°05'0 0.0
2017-Dec-07 06:58N 37°55' E 023°05'0 0.0
2017-Dec-07 06:28N 37°55' E 023°05'0 0.0
2017-Dec-07 05:58N 37°55' E 023°05'0 0.0
2017-Dec-07 05:28N 37°55' E 023°05'0 0.0
2017-Dec-07 04:58N 37°55' E 023°05'0 0.0
2017-Dec-07 04:28N 37°55' E 023°05'0 0.0
2017-Dec-07 03:58N 37°55' E 023°05'0 0.0
2017-Dec-07 03:28N 37°55' E 023°05'0 0.0
2017-Dec-07 02:58N 37°55' E 023°05'0 0.0
2017-Dec-07 02:28N 37°55' E 023°05'0 0.0
2017-Dec-07 01:58N 37°55' E 023°05'0 0.0
2017-Dec-07 01:28N 37°55' E 023°05'0 0.0
2017-Dec-07 00:58N 37°55' E 023°05'0 0.0
2017-Dec-07 00:28N 37°55' E 023°05'0 0.0
2017-Dec-06 23:58N 37°55' E 023°05'0 0.0
2017-Dec-06 23:28N 37°55' E 023°05'0 0.0
2017-Dec-06 22:58N 37°55' E 023°05'0 0.0
2017-Dec-06 22:28N 37°55' E 023°05'0 0.0
2017-Dec-06 21:58N 37°55' E 023°05'0 0.0
2017-Dec-06 21:28N 37°55' E 023°05'0 0.0
2017-Dec-06 20:58N 37°55' E 023°05'  
2017-Dec-04 10:31N 36°01' E 025°17'713.4
2017-Dec-04 10:01N 35°57' E 025°24'713.5
2017-Dec-04 09:30N 35°53' E 025°31'713.4
2017-Dec-04 09:01N 35°50' E 025°38'713.3
2017-Dec-04 08:31N 35°46' E 025°45'713.6
2017-Dec-04 08:00N 35°42' E 025°52'713.8
2017-Dec-04 07:31N 35°38' E 025°59'612.6
2017-Dec-04 07:00N 35°35' E 026°05'3 5.3
2017-Dec-04 06:30N 35°33' E 026°08'1 2.5
2017-Dec-04 06:00N 35°33' E 026°10'510.8
2017-Dec-04 05:30N 35°30' E 026°15'713.7
2017-Dec-04 05:00N 35°26' E 026°22'713.2
2017-Dec-04 04:30N 35°22' E 026°28'612.8
2017-Dec-04 04:00N 35°18' E 026°35'612.8
2017-Dec-04 03:30N 35°14' E 026°41'2113.0
2017-Dec-04 01:54N 35°01' E 027°01'812.8
2017-Dec-04 01:17N 34°56' E 027°08'312.9
2017-Dec-04 01:01N 34°54' E 027°11'813.0
2017-Dec-04 00:25N 34°49' E 027°19'612.9
2017-Dec-03 23:58N 34°46' E 027°24'712.8
2017-Dec-03 23:23N 34°41' E 027°31'512.7
2017-Dec-03 23:01N 34°38' E 027°36'2011.8
2017-Dec-03 21:18N 34°25' E 027°55'27611.3
2017-Dec-02 20:50N 31°33' E 032°13'413.6
2017-Dec-02 20:30N 31°32' E 032°18'713.7
2017-Dec-02 19:59N 31°27' E 032°24'1312.2
2017-Dec-02 18:56N 31°14' E 032°21'4 7.8
2017-Dec-02 18:27N 31°11' E 032°20'5 8.8
2017-Dec-02 17:54N 31°06' E 032°19'4 8.9
2017-Dec-02 17:24N 31°02' E 032°19'8 8.7
2017-Dec-02 16:33N 30°54' E 032°19'210.6
2017-Dec-02 16:24N 30°53' E 032°19'  

Dump ship's entire track history